createdAt,value
2022-12-08T00:01:40.079Z,99739.28
2022-12-08T00:04:07.783Z,99733.75
2022-12-08T00:06:40.265Z,99744.38
2022-12-08T00:09:12.916Z,99736.09
2022-12-08T00:11:39.616Z,99728.22
2022-12-08T00:14:06.473Z,99730.56
2022-12-08T00:16:33.259Z,99721.53
2022-12-08T00:18:59.987Z,99727.03
2022-12-08T00:21:26.763Z,99727.03
2022-12-08T00:23:55.764Z,99719.53
2022-12-08T00:26:23.053Z,99714.44
2022-12-08T00:28:50.011Z,99717.97
2022-12-08T00:31:17.531Z,99712.47
2022-12-08T00:33:44.272Z,99717.97
2022-12-08T00:36:14.350Z,99714.81
2022-12-08T00:38:41.661Z,99715.59
2022-12-08T00:41:13.577Z,99712.41
2022-12-08T00:43:40.449Z,99702.59
2022-12-08T00:46:07.164Z,99702.94
2022-12-08T00:48:34.005Z,99698.22
2022-12-08T00:51:00.802Z,99695.44
2022-12-08T00:53:27.629Z,99698.56
2022-12-08T00:55:54.266Z,99704.91
2022-12-08T00:58:20.961Z,99690.31
2022-12-08T01:00:47.811Z,99687.53
2022-12-08T01:03:14.605Z,99684.78
2022-12-08T01:05:41.411Z,99688.34
2022-12-08T01:08:09.087Z,99687.94
2022-12-08T01:10:36.676Z,99680.06
2022-12-08T01:13:03.786Z,99693.06
2022-12-08T01:15:30.496Z,99700.16
2022-12-08T01:17:57.241Z,99696.22
2022-12-08T01:20:24.396Z,99706.06
2022-12-08T01:22:51.169Z,99685.53
2022-12-08T01:25:18.028Z,99706.06
2022-12-08T01:27:44.850Z,99693.03
2022-12-08T01:30:12.109Z,99703.28
2022-12-08T01:32:38.844Z,99702.88
2022-12-08T01:35:05.891Z,99702.88
2022-12-08T01:37:32.579Z,99700.91
2022-12-08T01:39:59.284Z,99698.91
2022-12-08T01:42:26.155Z,99703.25
2022-12-08T01:44:59.913Z,99691.78
2022-12-08T01:47:33.335Z,99693.78
2022-12-08T01:50:01.363Z,99700.06
2022-12-08T01:52:40.530Z,99679.59
2022-12-08T01:55:15.727Z,99700.84
2022-12-08T01:57:50.272Z,99689.81
2022-12-08T02:00:20.267Z,99691.78
2022-12-08T02:02:55.558Z,99697.69
2022-12-08T02:05:26.332Z,99691.78
2022-12-08T02:07:54.608Z,99681.53
2022-12-08T02:10:23.546Z,99682.72
2022-12-08T02:12:53.520Z,99686.28
2022-12-08T02:15:26.524Z,99687.88
2022-12-08T02:18:02.465Z,99688.66
2022-12-08T02:20:29.160Z,99684.28
2022-12-08T02:23:18.294Z,99677.19
2022-12-08T02:26:22.272Z,99670.91
2022-12-08T02:29:40.490Z,99652.00
2022-12-08T02:32:12.905Z,99659.47
2022-12-08T02:34:49.446Z,99650.41
2022-12-08T02:37:23.812Z,99662.22
2022-12-08T02:40:19.478Z,99660.66
2022-12-08T02:42:56.205Z,99659.88
2022-12-08T02:45:31.890Z,99661.84
2022-12-08T02:47:59.970Z,99646.09
2022-12-08T02:50:28.131Z,99657.91
2022-12-08T02:52:55.339Z,99649.63
2022-12-08T02:55:37.764Z,99656.69
2022-12-08T02:58:22.941Z,99647.66
2022-12-08T03:01:17.497Z,99652.38
2022-12-08T03:04:27.363Z,99635.84
2022-12-08T03:07:07.309Z,99640.56
2022-12-08T03:09:39.784Z,99641.34
2022-12-08T03:13:05.097Z,99633.84
2022-12-08T03:15:32.942Z,99620.06
2022-12-08T03:18:00.035Z,99625.56
2022-12-08T03:20:30.223Z,99629.13
2022-12-08T03:23:00.326Z,99620.84
2022-12-08T03:25:31.208Z,99623.22
2022-12-08T03:27:59.602Z,99616.91
2022-12-08T03:30:31.663Z,99612.94
2022-12-08T03:33:09.559Z,99617.28
2022-12-08T03:35:39.390Z,99614.50
2022-12-08T03:38:12.799Z,99615.66
2022-12-08T03:40:40.477Z,99609.34
2022-12-08T03:43:07.316Z,99613.69
2022-12-08T03:45:34.338Z,99604.19
2022-12-08T03:48:01.118Z,99614.81
2022-12-08T03:50:28.338Z,99597.47
2022-12-08T03:52:55.038Z,99612.06
2022-12-08T03:55:21.723Z,99601.03
2022-12-08T03:57:48.451Z,99594.72
2022-12-08T04:00:16.831Z,99596.31
2022-12-08T04:02:43.679Z,99599.84
2022-12-08T04:05:10.495Z,99594.34
2022-12-08T04:07:37.344Z,99595.13
2022-12-08T04:10:05.337Z,99596.72
2022-12-08T04:12:32.271Z,99583.69
2022-12-08T04:14:59.100Z,99583.69
2022-12-08T04:17:26.805Z,99590.78
2022-12-08T04:19:53.709Z,99579.72
2022-12-08T04:22:20.531Z,99577.75
2022-12-08T04:24:48.279Z,99582.06
2022-12-08T04:27:14.933Z,99586.81
2022-12-08T04:29:41.631Z,99589.16
2022-12-08T04:32:08.337Z,99597.41
2022-12-08T04:34:35.063Z,99592.66
2022-12-08T04:37:01.828Z,99585.94
2022-12-08T04:39:28.543Z,99588.69
2022-12-08T04:41:55.202Z,99596.19
2022-12-08T04:44:21.921Z,99593.44
2022-12-08T04:46:48.660Z,99597.41
2022-12-08T04:49:15.398Z,99605.69
2022-12-08T04:51:42.113Z,99595.03
2022-12-08T04:54:08.817Z,99589.91
2022-12-08T04:56:35.494Z,99597.41
2022-12-08T04:59:02.874Z,99587.91
2022-12-08T05:01:29.694Z,99586.34
2022-12-08T05:03:56.972Z,99579.66
2022-12-08T05:06:23.678Z,99580.50
2022-12-08T05:08:50.659Z,99583.28
2022-12-08T05:11:17.543Z,99578.59
2022-12-08T05:13:44.249Z,99575.09
2022-12-08T05:16:13.874Z,99570.03
2022-12-08T05:18:41.936Z,99570.88
2022-12-08T05:21:09.123Z,99570.91
2022-12-08T05:23:36.332Z,99570.53
2022-12-08T05:26:03.114Z,99573.00
2022-12-08T05:28:41.265Z,99575.00
2022-12-08T05:31:08.884Z,99571.88
2022-12-08T05:33:35.695Z,99571.91
2022-12-08T05:36:02.440Z,99571.53
2022-12-08T05:38:29.246Z,99578.25
2022-12-08T05:40:56.087Z,99577.88
2022-12-08T05:43:22.771Z,99568.06
2022-12-08T05:45:49.750Z,99570.44
2022-12-08T05:48:16.842Z,99563.34
2022-12-08T05:50:47.953Z,99566.53
2022-12-08T05:53:15.613Z,99572.44
2022-12-08T05:55:42.316Z,99569.31
2022-12-08T05:58:12.952Z,99576.03
2022-12-08T06:00:40.182Z,99583.13
2022-12-08T06:03:07.401Z,99580.38
2022-12-08T06:05:35.545Z,99580.78
2022-12-08T06:08:02.452Z,99570.19
2022-12-08T06:10:29.605Z,99569.81
2022-12-08T06:12:56.247Z,99565.50
2022-12-08T06:15:22.957Z,99569.44
2022-12-08T06:17:49.572Z,99565.13
2022-12-08T06:20:16.250Z,99557.72
2022-12-08T06:22:42.968Z,99562.06
2022-12-08T06:25:10.403Z,99561.34
2022-12-08T06:27:37.202Z,99560.94
2022-12-08T06:30:05.210Z,99570.81
2022-12-08T06:32:32.111Z,99553.91
2022-12-08T06:34:58.883Z,99562.19
2022-12-08T06:37:25.876Z,99559.44
2022-12-08T06:39:52.492Z,99559.44
2022-12-08T06:42:19.253Z,99558.66
2022-12-08T06:44:46.200Z,99558.66
2022-12-08T06:47:12.936Z,99552.78
2022-12-08T06:49:39.586Z,99559.44
2022-12-08T06:52:06.317Z,99572.91
2022-12-08T06:54:32.997Z,99579.38
2022-12-08T06:57:00.037Z,99575.19
2022-12-08T06:59:26.684Z,99579.66
2022-12-08T07:01:53.388Z,99565.22
2022-12-08T07:04:20.113Z,99577.13
2022-12-08T07:06:46.770Z,99574.06
2022-12-08T07:09:13.400Z,99565.91
2022-12-08T07:11:40.050Z,99578.06
2022-12-08T07:14:07.336Z,99584.41
2022-12-08T07:16:34.160Z,99578.53
2022-12-08T07:19:01.033Z,99588.38
2022-12-08T07:21:27.762Z,99574.66
2022-12-08T07:23:57.931Z,99594.31
2022-12-08T07:26:25.490Z,99578.22
2022-12-08T07:28:52.231Z,99574.69
2022-12-08T07:31:25.181Z,99577.44
2022-12-08T07:33:52.431Z,99581.38
2022-12-08T07:36:19.342Z,99564.88
2022-12-08T07:38:46.127Z,99588.84
2022-12-08T07:41:17.408Z,99576.28
2022-12-08T07:43:45.086Z,99576.25
2022-12-08T07:46:13.618Z,99574.31
2022-12-08T07:48:40.539Z,99573.91
2022-12-08T07:51:07.299Z,99567.25
2022-12-08T07:53:34.237Z,99555.47
2022-12-08T07:56:01.080Z,99557.03
2022-12-08T07:58:27.713Z,99560.16
2022-12-08T08:00:54.443Z,99557.81
2022-12-08T08:03:21.136Z,99547.63
2022-12-08T08:05:47.780Z,99562.91
2022-12-08T08:08:14.525Z,99534.69
2022-12-08T08:10:41.315Z,99539.38
2022-12-08T08:13:08.848Z,99547.63
2022-12-08T08:15:35.980Z,99545.66
2022-12-08T08:18:02.769Z,99548.00
2022-12-08T08:20:29.516Z,99541.72
2022-12-08T08:22:56.251Z,99552.34
2022-12-08T08:25:22.858Z,99541.75
2022-12-08T08:27:49.840Z,99531.94
2022-12-08T08:30:20.734Z,99542.53
2022-12-08T08:32:48.734Z,99530.34
2022-12-08T08:35:15.509Z,99546.84
2022-12-08T08:37:47.230Z,99550.75
2022-12-08T08:40:15.656Z,99542.13
2022-12-08T08:42:42.363Z,99540.16
2022-12-08T08:45:09.538Z,99553.91
2022-12-08T08:47:36.344Z,99544.06
2022-12-08T08:50:04.368Z,99546.81
2022-12-08T08:52:31.381Z,99547.22
2022-12-08T08:54:58.071Z,99532.31
2022-12-08T08:57:26.094Z,99532.69
2022-12-08T08:59:54.086Z,99544.06
2022-12-08T09:02:21.630Z,99543.28
2022-12-08T09:04:48.630Z,99542.09
2022-12-08T09:07:15.971Z,99551.53
2022-12-08T09:09:42.908Z,99538.97
2022-12-08T09:12:10.092Z,99543.28
2022-12-08T09:14:36.909Z,99532.66
2022-12-08T09:17:03.588Z,99542.09
2022-12-08T09:19:30.254Z,99538.56
2022-12-08T09:21:56.942Z,99534.22
2022-12-08T09:24:23.700Z,99538.94
2022-12-08T09:26:50.452Z,99536.59
2022-12-08T09:29:17.153Z,99524.84
2022-12-08T09:31:44.132Z,99531.53
2022-12-08T09:34:12.763Z,99522.09
2022-12-08T09:36:40.051Z,99532.69
2022-12-08T09:39:07.190Z,99538.59
2022-12-08T09:41:41.829Z,99526.44
2022-12-08T09:44:22.815Z,99524.47
2022-12-08T09:46:52.494Z,99523.69
2022-12-08T09:49:23.913Z,99525.25
2022-12-08T09:51:50.798Z,99523.31
2022-12-08T09:54:31.713Z,99518.59
2022-12-08T09:57:01.416Z,99513.09
2022-12-08T09:59:31.621Z,99515.44
2022-12-08T10:01:59.869Z,99523.69
2022-12-08T10:04:30.753Z,99520.16
2022-12-08T10:07:05.916Z,99510.72
2022-12-08T10:09:38.838Z,99513.88
2022-12-08T10:12:22.141Z,99518.56
2022-12-08T10:15:00.511Z,99521.72
2022-12-08T10:17:35.110Z,99513.88
2022-12-08T10:20:17.688Z,99521.34
2022-12-08T10:22:48.200Z,99519.78
2022-12-08T10:25:33.251Z,99520.19
2022-12-08T10:27:59.949Z,99528.03
2022-12-08T10:30:26.946Z,99511.16
2022-12-08T10:32:54.113Z,99509.16
2022-12-08T10:35:23.000Z,99519.34
2022-12-08T10:37:57.926Z,99505.63
2022-12-08T10:40:28.646Z,99495.41
2022-12-08T10:42:59.051Z,99508.38
2022-12-08T10:45:30.319Z,99519.31
2022-12-08T10:48:03.740Z,99518.94
2022-12-08T10:50:41.264Z,99495.38
2022-12-08T10:53:07.909Z,99518.13
2022-12-08T10:55:46.888Z,99515.75
2022-12-08T10:58:34.613Z,99513.78
2022-12-08T11:01:17.652Z,99516.53
2022-12-08T11:03:53.127Z,99502.03
2022-12-08T11:06:28.712Z,99498.50
2022-12-08T11:09:01.548Z,99506.75
2022-12-08T11:12:06.117Z,99495.75
2022-12-08T11:14:55.799Z,99494.56
2022-12-08T11:17:22.353Z,99495.75
2022-12-08T11:20:24.424Z,99504.00
2022-12-08T11:22:53.525Z,99496.13
2022-12-08T11:25:27.854Z,99493.75
2022-12-08T11:27:59.697Z,99490.59
2022-12-08T11:30:34.202Z,99488.63
2022-12-08T11:33:22.607Z,99487.84
2022-12-08T11:35:57.988Z,99490.59
2022-12-08T11:38:26.612Z,99491.38
2022-12-08T11:41:03.485Z,99499.63
2022-12-08T11:43:36.009Z,99512.56
2022-12-08T11:46:11.628Z,99496.06
2022-12-08T11:48:45.226Z,99494.13
2022-12-08T11:51:39.676Z,99498.81
2022-12-08T11:54:13.506Z,99514.91
2022-12-08T11:56:47.816Z,99503.53
2022-12-08T11:59:25.224Z,99506.28
2022-12-08T12:01:52.099Z,99508.63
2022-12-08T12:04:27.927Z,99505.06
2022-12-08T12:07:09.610Z,99510.16
2022-12-08T12:10:07.370Z,99512.53
2022-12-08T12:13:16.978Z,99510.56
2022-12-08T12:16:05.021Z,99512.13
2022-12-08T12:19:00.347Z,99508.97
2022-12-08T12:21:39.354Z,99518.38
2022-12-08T12:24:10.942Z,99515.22
2022-12-08T12:26:49.226Z,99514.06
2022-12-08T12:29:21.270Z,99505.41
2022-12-08T12:31:52.380Z,99509.34
2022-12-08T12:34:48.215Z,99507.38
2022-12-08T12:37:18.848Z,99508.16
2022-12-08T12:40:11.974Z,99507.38
2022-12-08T12:42:45.471Z,99528.59
2022-12-08T12:45:15.001Z,99528.59
2022-12-08T12:47:57.323Z,99537.22
2022-12-08T12:50:33.364Z,99533.69
2022-12-08T12:53:25.836Z,99531.72
2022-12-08T12:55:57.353Z,99531.31
2022-12-08T12:58:30.012Z,99534.06
2022-12-08T13:01:11.978Z,99535.63
2022-12-08T13:03:42.325Z,99544.66
2022-12-08T13:06:14.366Z,99553.69
2022-12-08T13:08:51.320Z,99547.03
2022-12-08T13:11:18.424Z,99537.22
2022-12-08T13:14:03.329Z,99535.66
2022-12-08T13:16:39.572Z,99540.75
2022-12-08T13:19:16.150Z,99543.88
2022-12-08T13:21:42.925Z,99543.09
2022-12-08T13:24:25.803Z,99538.00
2022-12-08T13:27:04.771Z,99549.00
2022-12-08T13:29:33.230Z,99537.59
2022-12-08T13:32:03.996Z,99540.34
2022-12-08T13:34:53.199Z,99537.22
2022-12-08T13:37:31.042Z,99538.81
2022-12-08T13:40:10.497Z,99539.59
2022-12-08T13:42:40.384Z,99520.34
2022-12-08T13:45:39.741Z,99533.31
2022-12-08T13:50:32.404Z,99532.50
2022-12-08T13:55:16.034Z,99543.50
2022-12-08T13:57:28.934Z,99537.59
2022-12-08T14:00:01.851Z,99535.25
2022-12-08T14:02:35.368Z,99537.63
2022-12-08T14:05:18.017Z,99536.44
2022-12-08T14:07:48.359Z,99549.75
2022-12-08T14:10:27.800Z,99548.16
2022-12-08T14:13:01.660Z,99549.34
2022-12-08T14:15:32.686Z,99551.28
2022-12-08T14:18:04.119Z,99558.34
2022-12-08T14:20:46.478Z,99544.97
2022-12-08T14:23:20.240Z,99543.81
2022-12-08T14:25:48.337Z,99544.59
2022-12-08T14:28:15.084Z,99554.81
2022-12-08T14:30:41.994Z,99561.09
2022-12-08T14:33:14.646Z,99552.06
2022-12-08T14:35:41.815Z,99557.94
2022-12-08T14:38:19.864Z,99560.31
2022-12-08T14:40:49.871Z,99559.16
2022-12-08T14:43:26.104Z,99572.13
2022-12-08T14:45:58.586Z,99578.03
2022-12-08T14:48:31.473Z,99577.25
2022-12-08T14:51:21.076Z,99580.00
2022-12-08T14:53:58.777Z,99577.25
2022-12-08T14:56:29.217Z,99580.00
2022-12-08T14:59:10.068Z,99587.06
2022-12-08T15:01:37.725Z,99591.78
2022-12-08T15:04:12.195Z,99600.81
2022-12-08T15:06:52.381Z,99604.75
2022-12-08T15:09:43.906Z,99594.13
2022-12-08T15:12:13.735Z,99602.00
2022-12-08T15:15:14.404Z,99602.00
2022-12-08T15:17:45.669Z,99611.84
2022-12-08T15:20:40.037Z,99620.50
2022-12-08T15:23:18.975Z,99630.72
2022-12-08T15:25:46.675Z,99624.00
2022-12-08T15:28:17.489Z,99628.31
2022-12-08T15:30:44.351Z,99628.34
2022-12-08T15:33:11.048Z,99628.72
2022-12-08T15:35:40.973Z,99627.53
2022-12-08T15:38:18.739Z,99629.88
2022-12-08T15:40:45.469Z,99634.59
2022-12-08T15:43:12.202Z,99631.47
2022-12-08T15:45:43.859Z,99633.03
2022-12-08T15:48:23.549Z,99635.00
2022-12-08T15:50:50.426Z,99628.72
2022-12-08T15:53:17.576Z,99625.97
2022-12-08T15:56:10.867Z,99636.16
2022-12-08T16:01:20.617Z,99630.66
2022-12-08T16:09:26.349Z,99629.88
2022-12-08T16:12:10.388Z,99636.56
2022-12-08T16:17:25.919Z,99629.88
2022-12-08T16:19:52.639Z,99633.41
2022-12-08T16:22:54.174Z,99633.03
2022-12-08T16:25:19.343Z,99627.19
2022-12-08T16:28:01.427Z,99633.06
2022-12-08T16:30:30.394Z,99628.34
2022-12-08T16:32:58.408Z,99631.88
2022-12-08T16:35:26.215Z,99635.41
2022-12-08T16:37:53.685Z,99626.38
2022-12-08T16:40:20.587Z,99638.94
2022-12-08T16:42:47.641Z,99638.94
2022-12-08T16:45:23.394Z,99624.41
2022-12-08T16:47:58.325Z,99635.00
2022-12-08T16:50:28.338Z,99636.19
2022-12-08T16:53:06.798Z,99638.53
2022-12-08T16:55:35.155Z,99636.97
2022-12-08T16:58:02.755Z,99644.03
2022-12-08T17:00:32.012Z,99637.75
2022-12-08T17:02:58.801Z,99646.41
2022-12-08T17:05:26.661Z,99633.84
2022-12-08T17:07:54.017Z,99620.88
2022-12-08T17:10:24.085Z,99616.97
2022-12-08T17:12:51.393Z,99617.72
2022-12-08T17:15:20.884Z,99614.97
2022-12-08T17:17:47.731Z,99624.38
2022-12-08T17:20:17.262Z,99618.50
2022-12-08T17:22:44.361Z,99613.03
2022-12-08T17:25:13.207Z,99614.97
2022-12-08T17:27:40.485Z,99620.47
2022-12-08T17:30:10.274Z,99620.47
2022-12-08T17:32:37.994Z,99626.34
2022-12-08T17:35:05.495Z,99629.09
2022-12-08T17:37:32.604Z,99620.84
2022-12-08T17:39:59.214Z,99624.38
2022-12-08T17:42:26.073Z,99626.75
2022-12-08T17:44:53.588Z,99615.75
2022-12-08T17:47:20.452Z,99622.44
2022-12-08T17:49:47.226Z,99626.38
2022-12-08T17:52:14.011Z,99630.31
2022-12-08T17:54:40.710Z,99630.69
2022-12-08T17:57:07.403Z,99631.91
2022-12-08T17:59:34.142Z,99633.06
2022-12-08T18:02:01.002Z,99641.31
2022-12-08T18:04:28.753Z,99633.47
2022-12-08T18:06:55.700Z,99627.19
2022-12-08T18:09:22.509Z,99631.09
2022-12-08T18:11:49.523Z,99630.72
2022-12-08T18:14:16.631Z,99644.47
2022-12-08T18:16:45.742Z,99638.19
2022-12-08T18:19:14.277Z,99650.38
2022-12-08T18:21:42.363Z,99641.34
2022-12-08T18:24:15.624Z,99639.75
2022-12-08T18:26:42.354Z,99638.19
2022-12-08T18:29:09.132Z,99649.56
2022-12-08T18:31:35.924Z,99642.09
2022-12-08T18:34:02.769Z,99643.66
2022-12-08T18:36:30.283Z,99650.34
2022-12-08T18:38:57.040Z,99646.00
2022-12-08T18:44:04.337Z,66079.69
2022-12-08T18:46:31.132Z,66079.69
2022-12-08T18:48:57.959Z,66079.69
2022-12-08T18:51:24.744Z,66079.69
2022-12-08T18:53:52.535Z,66079.69
2022-12-08T18:56:26.571Z,66079.69
2022-12-08T18:59:02.923Z,66079.69
2022-12-08T19:01:35.028Z,66079.69
2022-12-08T19:04:27.942Z,66079.69
2022-12-08T19:06:52.908Z,66079.69
2022-12-08T19:09:20.456Z,66079.69
2022-12-08T19:11:47.411Z,66079.69
2022-12-08T19:14:14.622Z,66079.69
2022-12-08T19:16:41.364Z,66079.69
2022-12-08T19:19:08.188Z,66079.69
2022-12-08T19:21:35.243Z,66079.69
2022-12-08T19:24:01.960Z,66079.69
2022-12-08T19:26:28.652Z,66079.69
2022-12-08T19:28:55.649Z,66079.69
2022-12-08T19:31:22.481Z,66079.69
2022-12-08T19:33:49.611Z,66079.69
2022-12-08T19:36:19.596Z,66079.69
2022-12-08T19:38:46.945Z,66079.69
2022-12-08T19:41:13.794Z,66079.69
2022-12-08T19:43:40.479Z,66079.69
2022-12-08T19:46:08.679Z,66079.69
2022-12-08T19:48:35.695Z,66079.69
2022-12-08T19:51:02.453Z,66079.69
2022-12-08T19:53:29.101Z,66079.69
2022-12-08T19:55:55.881Z,66079.69
2022-12-08T19:58:22.707Z,66079.69
2022-12-08T20:00:49.461Z,66079.69
2022-12-08T20:03:17.512Z,66079.69
2022-12-08T20:05:45.844Z,66079.69
2022-12-08T20:08:12.956Z,66079.69
2022-12-08T20:10:42.573Z,66079.69
2022-12-08T20:13:10.989Z,66079.69
2022-12-08T20:15:37.701Z,66079.69
2022-12-08T20:18:10.536Z,66079.69
2022-12-08T20:20:37.971Z,66079.69
2022-12-08T20:23:04.801Z,66079.69
2022-12-08T20:25:31.605Z,66079.69
2022-12-08T20:27:58.360Z,66079.69
2022-12-08T20:30:26.644Z,66079.69
2022-12-08T20:32:53.457Z,66079.69
2022-12-08T20:35:20.150Z,66079.69
2022-12-08T20:37:46.925Z,66079.69
2022-12-08T20:40:14.262Z,66079.69
2022-12-08T20:42:41.066Z,66079.69
2022-12-08T20:45:08.640Z,66079.69
2022-12-08T20:47:36.543Z,66079.69
2022-12-08T20:50:06.037Z,66079.69
2022-12-08T20:52:33.184Z,66079.69
2022-12-08T20:55:00.222Z,66079.69
2022-12-08T20:57:27.142Z,66079.69
2022-12-08T20:59:53.941Z,66079.69
2022-12-08T21:02:20.744Z,66079.69
2022-12-08T21:04:47.858Z,66079.69
2022-12-08T21:07:14.962Z,66079.69
2022-12-08T21:09:41.965Z,66079.69
2022-12-08T21:12:09.130Z,66079.69
2022-12-08T21:14:36.056Z,66079.69
2022-12-08T21:17:03.276Z,66079.69
2022-12-08T21:19:30.164Z,66079.69
2022-12-08T21:21:57.052Z,66079.69
2022-12-08T21:24:26.410Z,66079.69
2022-12-08T21:26:55.705Z,66079.69
2022-12-08T21:29:22.553Z,66079.69
2022-12-08T21:31:49.622Z,66079.69
2022-12-08T21:34:16.481Z,66079.69
2022-12-08T21:36:43.361Z,66079.69
2022-12-08T21:39:10.264Z,66079.69
2022-12-08T21:41:37.284Z,66079.69
2022-12-08T21:44:05.379Z,66079.69
2022-12-08T21:46:32.612Z,66079.69
2022-12-08T21:48:59.616Z,66079.69
2022-12-08T21:51:26.527Z,66079.69
2022-12-08T21:53:53.534Z,66079.69
2022-12-08T21:56:20.490Z,66079.69
2022-12-08T21:58:47.348Z,66079.69
2022-12-08T22:01:14.354Z,66079.69
2022-12-08T22:03:41.960Z,66079.69
2022-12-08T22:06:11.516Z,66079.69
2022-12-08T22:08:39.033Z,66079.69
2022-12-08T22:11:06.824Z,66079.69
2022-12-08T22:13:35.427Z,66079.69
2022-12-08T22:16:05.434Z,66079.69
2022-12-08T22:18:33.497Z,66079.69
2022-12-08T22:21:00.597Z,66079.69
2022-12-08T22:23:28.900Z,66079.69
2022-12-08T22:25:59.803Z,66079.69
2022-12-08T22:28:28.124Z,66079.69
2022-12-08T22:30:54.915Z,66079.69
2022-12-08T22:33:21.785Z,66079.69
2022-12-08T22:36:02.219Z,66079.69
2022-12-08T22:38:32.201Z,66079.69
2022-12-08T22:40:58.957Z,66079.69
2022-12-08T22:43:25.959Z,66079.69
2022-12-08T22:45:52.754Z,66079.69
2022-12-08T22:48:19.643Z,66079.69
2022-12-08T22:50:46.387Z,66079.69
2022-12-08T22:53:14.955Z,66079.69
2022-12-08T22:55:45.106Z,66079.69
2022-12-08T22:58:11.996Z,66079.69
2022-12-08T23:00:39.470Z,66079.69
2022-12-08T23:03:06.901Z,66079.69
2022-12-08T23:05:35.186Z,66079.69
2022-12-08T23:08:03.263Z,66079.69
2022-12-08T23:10:31.219Z,66079.69
2022-12-08T23:13:03.529Z,66079.69
2022-12-08T23:15:31.511Z,66079.69
2022-12-08T23:17:58.655Z,66079.69
2022-12-08T23:20:25.797Z,66079.69
2022-12-08T23:22:52.977Z,66079.69
2022-12-08T23:25:19.987Z,66079.69
2022-12-08T23:27:47.118Z,66079.69
2022-12-08T23:30:14.676Z,66079.69
2022-12-08T23:32:41.721Z,66079.69
2022-12-08T23:35:09.055Z,66079.69
2022-12-08T23:37:36.141Z,66079.69
2022-12-08T23:40:04.272Z,66079.69
2022-12-08T23:42:31.475Z,66079.69
2022-12-08T23:44:58.414Z,66079.69
2022-12-08T23:47:25.373Z,66079.69
2022-12-08T23:49:52.155Z,66079.69
2022-12-08T23:52:18.827Z,66079.69
2022-12-08T23:54:45.573Z,66079.69
2022-12-08T23:57:12.379Z,66079.69
2022-12-08T23:59:39.173Z,66079.69
